Time;durP1;ratioP1;P1;durP2;ratioP2;P2;SDS_P1;SDS_P2;PMS_P1;PMS_P2;Temp;Humidity;BMP_temperature;BMP_pressure;BME280_temperature;BME280_humidity;BME280_pressure;Samples;Min_cycle;Max_cycle;Signal;HPM_P1;HPM_P2
2022/06/12 00:02:18;;;;;;;3.60;1.70;;;19.90;99.90;;;;;;5095428;28;20433;-76
2022/06/12 00:04:45;;;;;;;2.50;1.10;;;19.90;99.90;;;;;;5094581;28;20506;-76
2022/06/12 00:07:12;;;;;;;2.13;1.67;;;19.80;99.90;;;;;;5095344;28;20460;-76
2022/06/12 00:09:39;;;;;;;1.50;1.10;;;19.80;1.00;;;;;;5095641;28;21056;-76
2022/06/12 00:12:27;;;;;;;1.80;1.00;;;19.80;1.00;;;;;;5076233;28;20870;-76
2022/06/12 00:14:55;;;;;;;1.00;0.90;;;19.80;99.90;;;;;;5094121;28;20437;-76
2022/06/12 00:17:26;;;;;;;2.10;1.00;;;19.80;1.00;;;;;;5077173;28;20503;-76
2022/06/12 00:19:57;;;;;;;2.40;1.10;;;19.80;1.00;;;;;;5095878;28;20908;-76
2022/06/12 00:22:30;;;;;;;1.40;1.00;;;19.80;1.00;;;;;;5095844;28;20455;-76
2022/06/12 00:24:57;;;;;;;1.00;0.80;;;19.70;1.00;;;;;;5095423;28;20877;-76
2022/06/12 00:27:24;;;;;;;1.30;1.00;;;19.80;1.00;;;;;;5076996;28;20485;-76
2022/06/12 00:30:11;;;;;;;1.40;0.90;;;19.70;1.00;;;;;;5092797;28;20942;-76
2022/06/12 00:32:41;;;;;;;1.13;1.00;;;19.70;1.00;;;;;;5094506;28;20820;-76
2022/06/12 00:35:10;;;;;;;1.47;0.90;;;19.70;1.00;;;;;;5095525;28;20582;-76
2022/06/12 00:37:47;;;;;;;1.67;1.00;;;19.70;1.00;;;;;;5095555;28;20489;-76
2022/06/12 00:40:17;;;;;;;1.37;0.97;;;19.60;1.00;;;;;;5095050;28;20507;-74
2022/06/12 00:42:47;;;;;;;1.90;0.90;;;19.60;1.00;;;;;;5097794;28;20552;-75
2022/06/12 00:45:47;;;;;;;1.23;0.90;;;19.60;1.00;;;;;;5099493;28;20433;-74
2022/06/12 00:48:19;;;;;;;1.30;0.90;;;19.50;91.70;;;;;;5097890;28;20566;-75
2022/06/12 00:50:53;;;;;;;1.50;0.93;;;19.50;8.60;;;;;;5097488;28;20445;-75
2022/06/12 00:53:27;;;;;;;1.50;1.00;;;19.50;99.90;;;;;;5096265;28;20485;-75
2022/06/12 00:56:09;;;;;;;1.20;1.00;;;19.50;99.90;;;;;;5097335;28;20517;-75
2022/06/12 00:58:44;;;;;;;1.37;0.90;;;19.50;99.90;;;;;;5097899;28;20523;-75
2022/06/12 01:01:22;;;;;;;1.40;0.90;;;19.40;99.90;;;;;;5079732;28;20449;-75
2022/06/12 01:06:36;;;;;;;2.20;1.00;;;19.40;1.00;;;;;;5096849;28;20420;-75
2022/06/12 01:09:11;;;;;;;1.93;0.90;;;19.30;1.00;;;;;;5096032;28;20936;-75
2022/06/12 01:11:50;;;;;;;2.80;1.10;;;19.30;1.00;;;;;;5097161;28;20441;-75
2022/06/12 01:14:28;;;;;;;1.90;1.10;;;19.30;1.00;;;;;;5098840;28;20499;-75
2022/06/12 01:16:59;;;;;;;1.50;1.10;;;19.30;35.00;;;;;;5097826;28;20457;-75
2022/06/12 01:19:40;;;;;;;1.73;1.00;;;19.30;99.90;;;;;;5095605;28;20520;-75
2022/06/12 01:22:54;;;;;;;1.10;0.90;;;19.20;99.90;;;;;;5094473;28;20464;-75
2022/06/12 01:25:44;;;;;;;1.60;0.90;;;19.20;1.00;;;;;;5073556;28;20837;-75
2022/06/12 01:28:41;;;;;;;1.10;0.97;;;19.10;99.90;;;;;;5094904;28;20487;-75
2022/06/12 01:31:24;;;;;;;2.93;1.60;;;19.10;1.00;;;;;;5095308;28;20473;-74
2022/06/12 01:34:01;;;;;;;1.27;0.97;;;19.10;1.00;;;;;;5096301;28;20507;-74
2022/06/12 01:36:42;;;;;;;2.93;0.90;;;19.10;43.50;;;;;;5097799;28;20496;-75
2022/06/12 01:39:20;;;;;;;2.57;1.10;;;19.20;99.90;;;;;;5097623;28;20441;-75
2022/06/12 01:42:00;;;;;;;1.20;1.00;;;19.20;1.00;;;;;;5097921;28;20468;-75
2022/06/12 01:44:40;;;;;;;2.30;1.00;;;19.20;99.90;;;;;;5097114;28;20438;-75
2022/06/12 01:47:21;;;;;;;1.27;1.00;;;19.10;1.00;;;;;;5097715;28;20461;-75
2022/06/12 01:49:58;;;;;;;1.37;1.00;;;19.10;1.00;;;;;;5096938;28;20503;-75
2022/06/12 01:52:40;;;;;;;1.40;1.00;;;19.00;1.00;;;;;;5098207;28;20773;-75
2022/06/12 01:55:15;;;;;;;2.87;1.00;;;19.00;91.70;;;;;;5096602;28;20442;-75
2022/06/12 01:57:51;;;;;;;1.17;1.00;;;19.00;99.90;;;;;;5097840;28;20460;-75
2022/06/12 02:00:26;;;;;;;1.77;1.17;;;18.90;99.90;;;;;;5097622;28;20444;-75
2022/06/12 02:02:59;;;;;;;1.70;1.00;;;19.00;1.00;;;;;;5097178;28;20461;-75
2022/06/12 02:05:34;;;;;;;1.40;0.90;;;19.00;1.00;;;;;;5097331;28;20491;-75
2022/06/12 02:08:07;;;;;;;2.37;1.07;;;19.00;1.00;;;;;;5097421;28;21133;-74
2022/06/12 02:10:42;;;;;;;1.37;1.00;;;19.00;99.90;;;;;;5096638;28;20772;-74
2022/06/12 02:13:16;;;;;;;1.30;1.00;;;18.90;1.00;;;;;;5079293;28;20453;-75
2022/06/12 02:15:50;;;;;;;2.87;1.10;;;18.90;1.00;;;;;;5078607;28;20547;-75
2022/06/12 02:18:26;;;;;;;1.10;0.90;;;18.90;1.00;;;;;;5096576;28;20457;-75
2022/06/12 02:21:10;;;;;;;1.20;1.03;;;18.90;1.00;;;;;;5096852;28;20460;-75
2022/06/12 02:23:43;;;;;;;1.10;1.00;;;18.80;1.00;;;;;;5097277;28;20504;-75
2022/06/12 02:26:14;;;;;;;1.20;0.90;;;18.90;1.00;;;;;;5097629;28;20446;-75
2022/06/12 02:28:49;;;;;;;1.20;0.90;;;18.90;99.90;;;;;;5097695;28;20536;-75
2022/06/12 02:31:26;;;;;;;1.17;0.90;;;18.90;99.90;;;;;;5097232;28;20491;-75
2022/06/12 02:33:59;;;;;;;1.30;1.00;;;18.90;99.90;;;;;;5079664;28;20544;-75
2022/06/12 02:36:32;;;;;;;2.70;0.97;;;19.00;99.90;;;;;;5080148;28;20449;-75
2022/06/12 02:39:04;;;;;;;1.57;1.10;;;18.90;1.00;;;;;;5097371;28;20466;-75
2022/06/12 02:41:36;;;;;;;1.70;1.00;;;18.90;1.00;;;;;;5096947;28;20457;-74
2022/06/12 02:44:09;;;;;;;1.20;0.80;;;18.80;1.00;;;;;;5078665;28;21086;-74
2022/06/12 02:46:45;;;;;;;1.23;1.00;;;18.70;1.00;;;;;;5096891;28;20445;-76
2022/06/12 02:49:20;;;;;;;1.50;1.20;;;18.60;1.00;;;;;;5097321;28;20484;-76
2022/06/12 02:51:56;;;;;;;1.37;1.20;;;18.60;1.00;;;;;;5079271;28;20457;-76
2022/06/12 02:54:31;;;;;;;2.13;1.20;;;18.50;99.90;;;;;;5097311;28;20473;-76
2022/06/12 02:57:09;;;;;;;1.50;1.10;;;18.50;99.90;;;;;;5097053;28;20462;-76
2022/06/12 02:59:51;;;;;;;2.17;0.90;;;18.50;99.90;;;;;;5097462;28;20532;-76
2022/06/12 03:02:27;;;;;;;1.50;0.93;;;18.50;99.90;;;;;;5096779;28;20526;-76
2022/06/12 03:05:00;;;;;;;1.63;0.80;;;18.50;99.90;;;;;;5097259;28;20462;-76
2022/06/12 03:07:29;;;;;;;1.73;0.87;;;18.50;99.90;;;;;;5097670;28;20559;-76
2022/06/12 03:10:00;;;;;;;1.30;0.80;;;18.60;99.90;;;;;;5096807;28;20527;-76
2022/06/12 03:12:28;;;;;;;1.17;0.90;;;18.50;1.00;;;;;;5096527;28;20751;-77
2022/06/12 03:14:55;;;;;;;2.23;0.90;;;18.50;1.00;;;;;;5096967;28;20441;-77
2022/06/12 03:17:34;;;;;;;2.20;1.00;;;18.40;62.20;;;;;;5096315;28;20493;-76
2022/06/12 03:20:12;;;;;;;1.20;0.90;;;18.40;99.90;;;;;;5078640;28;20445;-76
2022/06/12 03:22:49;;;;;;;1.30;0.93;;;18.40;99.90;;;;;;5097005;28;20462;-75
2022/06/12 03:25:25;;;;;;;1.77;0.90;;;18.30;99.90;;;;;;5095696;28;20453;-75
2022/06/12 03:28:01;;;;;;;1.80;1.10;;;18.40;99.90;;;;;;5095228;28;20461;-76
2022/06/12 03:30:36;;;;;;;1.47;0.90;;;18.30;99.90;;;;;;5094832;28;20864;-75
2022/06/12 03:33:12;;;;;;;1.10;0.80;;;18.20;99.90;;;;;;5093628;28;20963;-75
2022/06/12 03:35:48;;;;;;;1.27;0.97;;;18.10;99.90;;;;;;5094939;28;20426;-75
2022/06/12 03:38:24;;;;;;;3.30;1.10;;;18.20;99.90;;;;;;5094769;28;20444;-75
2022/06/12 03:40:59;;;;;;;1.00;0.80;;;18.20;99.90;;;;;;5096487;28;20449;-75
2022/06/12 03:43:34;;;;;;;0.97;0.87;;;18.10;99.90;;;;;;5077748;28;20449;-75
2022/06/12 03:46:09;;;;;;;1.20;1.00;;;18.10;99.90;;;;;;5077350;28;20872;-75
2022/06/12 03:48:45;;;;;;;1.27;0.90;;;18.20;99.90;;;;;;5094980;28;20550;-75
2022/06/12 03:51:18;;;;;;;1.27;1.10;;;18.20;99.90;;;;;;5094813;28;20880;-75
2022/06/12 03:53:51;;;;;;;1.00;0.83;;;18.30;99.90;;;;;;5076635;28;20527;-75
2022/06/12 03:59:16;;;;;;;2.90;0.80;;;18.30;99.90;;;;;;5095363;28;20717;-76
2022/06/12 04:01:45;;;;;;;1.63;0.90;;;18.30;99.90;;;;;;5095888;28;20445;-76
2022/06/12 04:04:16;;;;;;;2.60;0.90;;;18.30;99.90;;;;;;5095034;28;20484;-76
2022/06/12 04:06:45;;;;;;;2.20;1.20;;;18.20;99.90;;;;;;5096015;28;20449;-76
2022/06/12 04:09:19;;;;;;;1.20;0.90;;;18.30;99.90;;;;;;5096596;28;20481;-76
2022/06/12 04:11:54;;;;;;;1.20;0.90;;;18.30;99.90;;;;;;5097147;28;20798;-76
2022/06/12 04:14:26;;;;;;;1.13;1.00;;;18.30;99.90;;;;;;5098478;28;20515;-76
2022/06/12 04:16:57;;;;;;;2.23;1.23;;;18.30;99.90;;;;;;5097971;28;20483;-76
2022/06/12 04:19:27;;;;;;;1.20;0.80;;;18.30;99.90;;;;;;5100204;28;20936;-75
2022/06/12 04:22:02;;;;;;;1.10;0.90;;;18.30;99.90;;;;;;5099415;28;20473;-75
2022/06/12 04:24:36;;;;;;;1.20;0.93;;;18.40;99.90;;;;;;5099181;28;20460;-75
2022/06/12 04:27:08;;;;;;;1.10;0.90;;;18.30;99.90;;;;;;5099723;28;20507;-75
2022/06/12 04:29:39;;;;;;;1.27;1.07;;;18.30;99.90;;;;;;5099436;28;20864;-74
2022/06/12 04:32:08;;;;;;;0.90;0.80;;;18.20;99.90;;;;;;5099624;28;20850;-75
2022/06/12 04:34:38;;;;;;;1.10;0.90;;;18.10;1.00;;;;;;5100362;28;20932;-77
2022/06/12 04:37:17;;;;;;;1.00;0.90;;;18.20;1.00;;;;;;5100121;28;20472;-77
2022/06/12 04:39:45;;;;;;;1.10;1.00;;;18.20;99.90;;;;;;5100513;28;20437;-77
2022/06/12 04:42:16;;;;;;;1.67;1.07;;;18.30;99.90;;;;;;5100257;28;20824;-76
2022/06/12 04:44:49;;;;;;;2.10;1.10;;;18.30;1.00;;;;;;5100187;28;20966;-77
2022/06/12 04:47:43;;;;;;;1.40;1.00;;;18.20;1.00;;;;;;5100183;28;20748;-76
2022/06/12 04:53:11;;;;;;;3.03;1.00;;;18.10;1.00;;;;;;5098196;28;20884;-76
2022/06/12 04:55:48;;;;;;;2.70;1.00;;;18.20;1.00;;;;;;5099353;28;20871;-76
2022/06/12 04:58:31;;;;;;;1.13;0.90;;;18.40;1.00;;;;;;5098379;28;20463;-76
2022/06/12 05:01:00;;;;;;;1.50;1.20;;;18.70;99.90;;;;;;5098331;28;20421;-76
2022/06/12 05:03:27;;;;;;;1.50;1.10;;;18.90;1.00;;;;;;5099634;28;20792;-76
2022/06/12 05:05:56;;;;;;;1.20;1.10;;;18.90;1.00;;;;;;5100270;28;20911;-76
2022/06/12 05:08:23;;;;;;;1.63;1.00;;;18.90;1.00;;;;;;5099851;28;20457;-76
2022/06/12 05:10:50;;;;;;;1.30;1.10;;;18.90;1.00;;;;;;5099570;28;20505;-76
2022/06/12 05:13:17;;;;;;;2.10;1.10;;;18.90;1.00;;;;;;5099447;28;20497;-77
2022/06/12 05:15:45;;;;;;;1.40;1.00;;;19.00;1.00;;;;;;5098667;28;20449;-76
2022/06/12 05:18:13;;;;;;;2.10;1.13;;;19.00;1.00;;;;;;5099218;28;20485;-77
2022/06/12 05:20:41;;;;;;;1.10;1.00;;;18.90;1.00;;;;;;5099144;28;20477;-76
2022/06/12 05:23:10;;;;;;;1.67;1.47;;;18.90;1.00;;;;;;5098377;28;20484;-76
2022/06/12 05:25:38;;;;;;;1.03;0.90;;;19.00;1.00;;;;;;5098407;28;20733;-76
2022/06/12 05:28:06;;;;;;;2.00;1.00;;;19.00;1.00;;;;;;5098444;28;20442;-76
2022/06/12 05:30:35;;;;;;;1.20;0.90;;;19.20;1.00;;;;;;5098600;28;20539;-76
2022/06/12 05:33:03;;;;;;;1.70;1.33;;;19.30;1.00;;;;;;5098672;28;20557;-76
2022/06/12 05:35:31;;;;;;;1.80;1.00;;;19.30;1.00;;;;;;5098400;28;20864;-76
2022/06/12 05:38:01;;;;;;;1.23;1.00;;;19.20;25.50;;;;;;5098388;28;20465;-76
2022/06/12 05:40:34;;;;;;;1.60;1.10;;;19.20;72.10;;;;;;5098877;28;20520;-76
2022/06/12 05:43:01;;;;;;;1.30;1.00;;;19.10;1.00;;;;;;5098893;28;20767;-76
2022/06/12 05:45:30;;;;;;;1.67;1.03;;;19.10;1.00;;;;;;5099029;28;20679;-76
2022/06/12 05:47:59;;;;;;;1.30;1.00;;;19.10;1.00;;;;;;5098567;28;20442;-76
2022/06/12 05:50:30;;;;;;;1.50;1.13;;;19.10;1.00;;;;;;5098343;28;20531;-77
2022/06/12 05:52:58;;;;;;;1.30;1.10;;;19.20;99.90;;;;;;5097940;28;20555;-77
2022/06/12 05:55:25;;;;;;;1.30;1.07;;;19.30;1.00;;;;;;5098593;28;20450;-77
2022/06/12 05:57:53;;;;;;;2.00;1.33;;;19.20;99.90;;;;;;5098444;28;20741;-77
2022/06/12 06:00:24;;;;;;;1.77;1.20;;;19.20;1.00;;;;;;5097846;28;20465;-76
2022/06/12 06:02:51;;;;;;;1.30;1.13;;;19.20;1.00;;;;;;5098447;28;20473;-77
2022/06/12 06:05:19;;;;;;;2.33;1.87;;;19.20;1.00;;;;;;5098288;28;20457;-77
2022/06/12 06:07:46;;;;;;;1.73;1.07;;;19.30;1.00;;;;;;5098089;28;20457;-77
2022/06/12 06:10:17;;;;;;;1.83;1.00;;;19.30;1.00;;;;;;5098192;28;20519;-76
2022/06/12 06:12:44;;;;;;;2.20;1.00;;;19.40;99.90;;;;;;5098258;28;20540;-76
2022/06/12 06:15:14;;;;;;;2.60;1.10;;;19.50;99.90;;;;;;5098045;28;20445;-77
2022/06/12 06:17:41;;;;;;;3.10;1.20;;;19.60;1.00;;;;;;5097184;28;20507;-77
2022/06/12 06:20:11;;;;;;;1.60;1.07;;;19.70;1.00;;;;;;5096376;28;20454;-76
2022/06/12 06:22:38;;;;;;;1.30;1.00;;;19.80;99.90;;;;;;5096052;28;20754;-76
2022/06/12 06:25:09;;;;;;;1.77;1.10;;;20.00;1.00;;;;;;5095811;28;20481;-77
2022/06/12 06:27:37;;;;;;;1.40;1.27;;;20.10;1.00;;;;;;5096019;28;20972;-76
2022/06/12 06:30:05;;;;;;;1.40;1.10;;;20.20;48.90;;;;;;5096209;28;20582;-76
2022/06/12 06:32:34;;;;;;;3.07;1.50;;;20.20;1.00;;;;;;5096823;28;20524;-76
2022/06/12 06:35:01;;;;;;;1.20;0.97;;;20.20;1.00;;;;;;5098000;28;20507;-76
2022/06/12 06:37:28;;;;;;;1.50;1.10;;;20.30;1.00;;;;;;5097627;28;20542;-76
2022/06/12 06:39:55;;;;;;;1.43;1.03;;;20.50;1.00;;;;;;5097044;28;20815;-75
2022/06/12 06:42:23;;;;;;;3.00;1.20;;;20.70;99.90;;;;;;5097252;28;20870;-75
2022/06/12 06:47:36;;;;;;;1.57;1.00;;;20.90;99.90;;;;;;5096977;28;20433;-75
2022/06/12 06:50:04;;;;;;;2.30;1.00;;;20.90;99.90;;;;;;5097353;28;20492;-76
2022/06/12 06:52:31;;;;;;;1.70;1.20;;;21.10;99.90;;;;;;5096797;28;20456;-77
2022/06/12 06:54:58;;;;;;;2.37;1.13;;;21.20;56.60;;;;;;5097020;28;20499;-74
2022/06/12 06:57:25;;;;;;;1.70;1.20;;;21.30;1.00;;;;;;5096647;28;20738;-74
2022/06/12 06:59:52;;;;;;;1.50;1.07;;;21.30;1.00;;;;;;5096867;28;20445;-77
2022/06/12 07:02:19;;;;;;;1.30;1.10;;;21.40;1.00;;;;;;5097264;28;20449;-76
2022/06/12 07:04:48;;;;;;;2.50;0.93;;;21.40;1.00;;;;;;5096823;28;20488;-76
2022/06/12 07:07:15;;;;;;;1.30;1.10;;;21.50;1.00;;;;;;5096889;28;20527;-75
2022/06/12 07:09:42;;;;;;;1.20;1.00;;;21.70;1.00;;;;;;5096693;28;20477;-76
2022/06/12 07:12:10;;;;;;;1.10;0.97;;;21.90;1.00;;;;;;5096815;28;20531;-76
2022/06/12 07:14:37;;;;;;;2.87;1.00;;;22.00;1.00;;;;;;5096635;28;20908;-77
2022/06/12 07:17:04;;;;;;;1.77;0.90;;;22.20;99.90;;;;;;5096500;28;20557;-76
2022/06/12 07:19:32;;;;;;;1.20;1.00;;;22.30;99.90;;;;;;5096775;28;20481;-76
2022/06/12 07:22:04;;;;;;;1.07;0.97;;;22.30;99.90;;;;;;5096467;28;20893;-75
2022/06/12 07:24:31;;;;;;;2.10;1.00;;;22.40;99.90;;;;;;5096590;28;20499;-75
2022/06/12 07:26:58;;;;;;;1.33;0.90;;;22.50;99.90;;;;;;5096886;28;20548;-75
2022/06/12 07:29:25;;;;;;;1.40;1.10;;;22.60;99.90;;;;;;5097080;28;20449;-76
2022/06/12 07:31:53;;;;;;;1.20;1.00;;;22.70;99.90;;;;;;5096590;28;20505;-77
2022/06/12 07:34:20;;;;;;;1.50;0.90;;;22.80;99.90;;;;;;5097131;28;20449;-77
2022/06/12 07:36:50;;;;;;;1.10;1.00;;;23.00;99.90;;;;;;5096601;28;20880;-77
2022/06/12 07:39:23;;;;;;;1.67;1.00;;;23.00;72.40;;;;;;5096670;28;20520;-75
2022/06/12 07:41:52;;;;;;;2.70;0.90;;;23.10;14.00;;;;;;5096932;28;20532;-76
2022/06/12 07:44:21;;;;;;;1.43;0.90;;;23.10;14.30;;;;;;5097028;28;20457;-74
2022/06/12 07:46:49;;;;;;;1.10;1.00;;;23.00;27.10;;;;;;5096712;28;20460;-76
2022/06/12 07:49:17;;;;;;;1.90;1.00;;;23.10;1.00;;;;;;5097131;28;20495;-75
2022/06/12 07:51:44;;;;;;;1.50;1.17;;;23.20;1.00;;;;;;5095754;28;20952;-74
2022/06/12 07:54:12;;;;;;;1.50;1.00;;;23.20;1.00;;;;;;5095765;28;20445;-74
2022/06/12 07:56:41;;;;;;;1.47;0.90;;;23.40;1.00;;;;;;5095405;28;20454;-75
2022/06/12 07:59:08;;;;;;;1.90;1.13;;;23.50;1.00;;;;;;5096454;28;20456;-75
2022/06/12 08:01:37;;;;;;;1.20;1.00;;;23.60;1.00;;;;;;5096165;28;20552;-75
2022/06/12 08:04:06;;;;;;;1.57;1.00;;;23.80;1.00;;;;;;5093419;28;20524;-75
2022/06/12 08:06:35;;;;;;;1.33;0.80;;;23.90;1.00;;;;;;5096609;28;20537;-75
2022/06/12 08:09:05;;;;;;;1.00;0.80;;;24.00;1.00;;;;;;5075374;28;20450;-76
2022/06/12 08:11:33;;;;;;;1.17;0.90;;;24.20;1.00;;;;;;5074122;28;20790;-75
2022/06/12 08:14:02;;;;;;;1.40;1.10;;;24.30;1.00;;;;;;5074083;28;20473;-75
2022/06/12 08:16:29;;;;;;;2.63;0.87;;;24.40;1.00;;;;;;5075423;28;20545;-77
2022/06/12 08:19:02;;;;;;;1.67;1.00;;;24.30;1.00;;;;;;5082748;28;20538;-77
2022/06/12 08:21:29;;;;;;;1.50;1.00;;;24.30;1.00;;;;;;5091426;28;20457;-74
2022/06/12 08:23:58;;;;;;;1.20;1.10;;;24.40;1.00;;;;;;5092547;28;20569;-75
2022/06/12 08:26:28;;;;;;;1.20;0.90;;;24.50;1.00;;;;;;5092210;28;20520;-76
2022/06/12 08:28:59;;;;;;;1.00;0.90;;;24.60;1.00;;;;;;5092775;28;20484;-76
2022/06/12 08:31:31;;;;;;;1.13;1.00;;;24.60;1.00;;;;;;5072554;28;20552;-75
2022/06/12 08:34:03;;;;;;;1.53;0.90;;;24.70;1.00;;;;;;5073546;28;20939;-74
2022/06/12 08:36:31;;;;;;;1.10;0.90;;;24.80;1.00;;;;;;5073676;28;20947;-74
2022/06/12 08:38:58;;;;;;;1.10;1.00;;;25.00;1.00;;;;;;5072771;28;20537;-75
2022/06/12 08:41:34;;;;;;;2.20;1.07;;;25.10;1.00;;;;;;5074651;28;20458;-75
2022/06/12 08:44:07;;;;;;;1.07;0.90;;;25.20;1.00;;;;;;5073492;28;20441;-76
2022/06/12 08:46:41;;;;;;;2.33;0.90;;;25.30;1.00;;;;;;5072884;28;20466;-77
2022/06/12 08:49:23;;;;;;;1.10;1.00;;;25.40;1.00;;;;;;5074553;28;20479;-76
2022/06/12 08:51:56;;;;;;;1.37;1.00;;;25.60;1.00;;;;;;5073444;28;20486;-75
2022/06/12 08:54:30;;;;;;;1.20;0.80;;;25.60;1.00;;;;;;5077451;28;20454;-75
2022/06/12 08:57:05;;;;;;;2.13;1.00;;;25.70;1.00;;;;;;5091658;28;20460;-77
2022/06/12 08:59:38;;;;;;;1.50;1.00;;;25.70;1.00;;;;;;5083004;28;20544;-77
2022/06/12 09:02:13;;;;;;;1.70;0.90;;;25.70;1.00;;;;;;5073830;28;20465;-77
2022/06/12 09:04:41;;;;;;;23.47;16.60;;;25.80;1.00;;;;;;5085487;28;20461;-76
2022/06/12 09:07:14;;;;;;;1.20;1.00;;;25.90;1.00;;;;;;5097251;28;20450;-77
2022/06/12 09:09:46;;;;;;;1.10;1.00;;;26.00;1.00;;;;;;5084475;28;20558;-77
2022/06/12 09:12:19;;;;;;;0.87;0.87;;;26.00;1.00;;;;;;5077402;28;20724;-77
2022/06/12 09:15:05;;;;;;;1.97;1.20;;;25.90;1.00;;;;;;5078097;28;20458;-76
2022/06/12 09:17:43;;;;;;;1.37;0.90;;;26.10;1.00;;;;;;5106796;28;20831;-76
2022/06/12 09:20:18;;;;;;;1.03;0.90;;;26.20;1.00;;;;;;5117436;28;20816;-77
2022/06/12 09:22:57;;;;;;;0.97;0.80;;;26.20;1.00;;;;;;5096215;28;20581;-77
2022/06/12 09:25:31;;;;;;;1.73;0.80;;;26.30;1.00;;;;;;5097631;28;20720;-77
2022/06/12 09:28:07;;;;;;;0.80;0.70;;;26.30;1.00;;;;;;5097328;28;20445;-77
2022/06/12 09:30:41;;;;;;;2.40;1.00;;;26.40;1.00;;;;;;5097247;28;20765;-75
2022/06/12 09:33:19;;;;;;;1.00;0.80;;;26.50;1.00;;;;;;5064216;28;20485;-76
2022/06/12 09:36:01;;;;;;;1.57;0.80;;;26.50;1.00;;;;;;5058111;28;20474;-76
2022/06/12 09:38:42;;;;;;;1.10;0.90;;;26.80;1.00;;;;;;5057586;28;20456;-77
2022/06/12 09:41:13;;;;;;;1.00;0.80;;;27.00;1.00;;;;;;5083092;28;20493;-74
2022/06/12 09:43:58;;;;;;;1.03;0.73;;;27.10;1.00;;;;;;5064100;28;20541;-78
2022/06/12 09:46:39;;;;;;;1.17;0.80;;;27.00;1.00;;;;;;5058831;28;20489;-75
2022/06/12 09:49:31;;;;;;;1.47;0.90;;;27.00;1.00;;;;;;5089002;28;20441;-75
2022/06/12 09:52:17;;;;;;;1.33;0.90;;;26.80;1.00;;;;;;5081941;28;20479;-75
2022/06/12 09:54:51;;;;;;;0.90;0.80;;;26.80;1.00;;;;;;5058281;28;20506;-76
2022/06/12 09:57:28;;;;;;;1.43;0.90;;;27.10;1.00;;;;;;5068296;28;20501;-76
2022/06/12 10:00:01;;;;;;;1.00;0.80;;;27.20;1.00;;;;;;5098494;28;20449;-74
2022/06/12 10:02:35;;;;;;;0.93;0.83;;;27.20;1.00;;;;;;5084289;28;20856;-73
2022/06/12 10:05:12;;;;;;;1.50;0.80;;;27.60;1.00;;;;;;5095291;28;20908;-74
2022/06/12 10:07:46;;;;;;;1.00;0.90;;;27.80;1.00;;;;;;5079195;28;20561;-75
2022/06/12 10:10:20;;;;;;;1.27;0.70;;;28.10;1.00;;;;;;5077658;28;20451;-76
2022/06/12 10:12:52;;;;;;;0.80;0.77;;;28.30;1.00;;;;;;5078592;28;20454;-76
2022/06/12 10:15:26;;;;;;;1.40;0.73;;;28.40;1.00;;;;;;5076904;28;20454;-77
2022/06/12 10:18:03;;;;;;;1.20;0.90;;;28.50;1.00;;;;;;5083613;28;20472;-75
2022/06/12 10:20:35;;;;;;;1.10;0.80;;;28.50;1.00;;;;;;5058487;28;20745;-76
2022/06/12 10:23:18;;;;;;;0.90;0.70;;;28.70;1.00;;;;;;5058301;28;20475;-77
2022/06/12 10:25:50;;;;;;;0.90;0.70;;;29.20;1.00;;;;;;5087878;28;20449;-77
2022/06/12 10:28:25;;;;;;;1.07;0.80;;;29.70;1.00;;;;;;5094284;28;20747;-77
2022/06/12 10:31:04;;;;;;;1.33;0.90;;;30.20;1.00;;;;;;5078366;28;20539;-77
2022/06/12 10:33:46;;;;;;;0.80;0.80;;;30.40;1.00;;;;;;5098926;28;20481;-73
2022/06/12 10:36:27;;;;;;;1.27;0.80;;;30.30;1.00;;;;;;5117634;28;20444;-75
2022/06/12 10:39:06;;;;;;;1.00;0.80;;;29.90;1.00;;;;;;5110367;28;20796;-76
2022/06/12 10:41:49;;;;;;;0.97;0.90;;;29.60;1.00;;;;;;5103115;28;20446;-76
2022/06/12 10:44:33;;;;;;;1.17;0.80;;;29.40;1.00;;;;;;5098998;28;20826;-73
2022/06/12 10:47:20;;;;;;;0.83;0.70;;;29.10;1.00;;;;;;5086640;28;20905;-75
2022/06/12 10:49:48;;;;;;;1.20;0.90;;;29.00;1.00;;;;;;5110930;28;20517;-75
2022/06/12 10:52:20;;;;;;;1.10;0.70;;;28.60;1.00;;;;;;5119805;28;20507;-75
2022/06/12 10:54:48;;;;;;;1.97;0.90;;;28.50;1.00;;;;;;5111248;28;20897;-75
2022/06/12 10:57:43;;;;;;;1.70;0.87;;;28.30;1.00;;;;;;5078267;28;20493;-76
2022/06/12 11:00:14;;;;;;;1.20;0.90;;;28.30;1.00;;;;;;5099427;28;20441;-75
2022/06/12 11:03:08;;;;;;;1.33;0.80;;;28.50;1.00;;;;;;5118553;28;20452;-74
2022/06/12 11:05:52;;;;;;;1.50;0.80;;;28.80;1.00;;;;;;5096951;28;20548;-75
2022/06/12 11:08:55;;;;;;;1.20;0.90;;;29.10;1.00;;;;;;5087422;28;20460;-74
2022/06/12 11:11:29;;;;;;;0.80;0.80;;;29.80;1.00;;;;;;5083424;28;20923;-74
2022/06/12 11:14:13;;;;;;;1.20;0.77;;;30.10;1.00;;;;;;5096823;28;20481;-74
2022/06/12 11:16:53;;;;;;;0.90;0.70;;;30.50;1.00;;;;;;5098392;28;20468;-74
2022/06/12 11:19:33;;;;;;;1.47;0.70;;;31.10;1.00;;;;;;5078257;28;20489;-74
2022/06/12 11:22:09;;;;;;;0.83;0.60;;;31.50;1.00;;;;;;5084041;28;20481;-74
2022/06/12 11:24:51;;;;;;;1.23;0.60;;;32.00;1.00;;;;;;5097544;28;20822;-76
2022/06/12 11:27:32;;;;;;;0.93;0.60;;;31.70;1.00;;;;;;5084728;28;20497;-76
2022/06/12 11:30:21;;;;;;;1.43;1.10;;;31.40;1.00;;;;;;5117501;28;20964;-75
2022/06/12 11:33:07;;;;;;;0.97;0.80;;;31.10;1.00;;;;;;5104745;28;21005;-76
2022/06/12 11:35:45;;;;;;;1.00;0.80;;;31.10;1.00;;;;;;5117245;28;20573;-74
2022/06/12 11:38:29;;;;;;;1.23;1.13;;;31.30;1.00;;;;;;5094846;28;20865;-75
2022/06/12 11:41:08;;;;;;;0.70;0.70;;;31.50;1.00;;;;;;5108582;28;20535;-74
2022/06/12 11:43:39;;;;;;;0.83;0.70;;;31.20;1.00;;;;;;5113904;28;20909;-74
2022/06/12 11:46:21;;;;;;;1.40;0.80;;;31.20;1.00;;;;;;5096240;28;20570;-74
2022/06/12 11:49:13;;;;;;;1.33;0.90;;;31.60;1.00;;;;;;5095464;28;20446;-76
2022/06/12 11:51:52;;;;;;;0.90;0.67;;;32.10;1.00;;;;;;5094431;28;20702;-75
2022/06/12 11:54:39;;;;;;;0.80;0.70;;;32.10;1.00;;;;;;5105890;28;20473;-75
2022/06/12 11:57:17;;;;;;;1.03;0.80;;;32.00;1.00;;;;;;5100517;28;20456;-75
2022/06/12 11:59:55;;;;;;;0.77;0.60;;;32.40;1.00;;;;;;5098773;28;20536;-76
2022/06/12 12:02:36;;;;;;;0.83;0.73;;;32.40;1.00;;;;;;5098605;28;20826;-77
2022/06/12 12:05:16;;;;;;;0.80;0.70;;;32.40;1.00;;;;;;5093890;28;20540;-74
2022/06/12 12:07:54;;;;;;;0.80;0.70;;;32.30;1.00;;;;;;5095037;28;20912;-74
2022/06/12 12:10:36;;;;;;;0.90;0.70;;;32.70;1.00;;;;;;5094803;28;20916;-74
2022/06/12 12:13:10;;;;;;;0.77;0.53;;;32.60;1.00;;;;;;5085082;28;20457;-75
2022/06/12 12:15:45;;;;;;;0.60;0.57;;;32.70;1.00;;;;;;5095040;28;20441;-77
2022/06/12 12:18:32;;;;;;;0.70;0.60;;;32.80;1.00;;;;;;5095195;28;20900;-74
2022/06/12 12:21:02;;;;;;;0.70;0.60;;;32.80;1.00;;;;;;5084257;28;20754;-75
2022/06/12 12:23:36;;;;;;;1.20;0.60;;;33.10;1.00;;;;;;5095261;28;20460;-74
2022/06/12 12:26:08;;;;;;;1.40;0.93;;;32.90;1.00;;;;;;5093038;28;20537;-75
2022/06/12 12:28:41;;;;;;;1.00;0.70;;;33.30;1.00;;;;;;5090587;28;20485;-75
2022/06/12 12:31:17;;;;;;;1.03;0.70;;;33.70;1.00;;;;;;5093761;28;20826;-74
2022/06/12 12:33:46;;;;;;;1.23;0.60;;;33.70;1.00;;;;;;5095578;28;20817;-74
2022/06/12 12:41:49;;;;;;;0.80;0.80;;;32.10;1.00;;;;;;5098639;28;20741;-74
2022/06/12 12:44:31;;;;;;;1.33;0.70;;;32.00;1.00;;;;;;5099525;28;20445;-74
2022/06/12 12:46:59;;;;;;;0.80;0.60;;;32.20;1.00;;;;;;5099179;28;20673;-75
2022/06/12 12:49:29;;;;;;;0.87;0.70;;;32.80;1.00;;;;;;5097997;28;20948;-74
2022/06/12 12:52:09;;;;;;;1.00;0.70;;;33.00;1.00;;;;;;5096992;28;20473;-75
2022/06/12 12:54:48;;;;;;;0.87;0.70;;;32.70;1.00;;;;;;5097967;28;20540;-74
2022/06/12 12:57:17;;;;;;;1.27;0.60;;;32.30;1.00;;;;;;5097189;28;20834;-75
2022/06/12 12:59:48;;;;;;;1.03;0.60;;;31.90;1.00;;;;;;5097825;28;20536;-75
2022/06/12 13:02:28;;;;;;;0.80;0.80;;;31.50;1.00;;;;;;5096969;28;20719;-75
2022/06/12 13:04:57;;;;;;;0.87;0.60;;;31.20;1.00;;;;;;5097615;28;20445;-75
2022/06/12 13:07:49;;;;;;;0.80;0.60;;;31.50;1.00;;;;;;5097165;28;20530;-75
2022/06/12 13:10:44;;;;;;;1.07;0.70;;;31.70;1.00;;;;;;5098326;28;20854;-74
2022/06/12 13:13:28;;;;;;;0.80;0.70;;;32.00;1.00;;;;;;5097371;28;20604;-75
2022/06/12 13:16:02;;;;;;;0.80;0.70;;;32.40;1.00;;;;;;5097575;28;20581;-75
2022/06/12 13:18:41;;;;;;;1.13;0.73;;;32.10;1.00;;;;;;5096707;28;20508;-75
2022/06/12 13:21:20;;;;;;;1.10;0.70;;;31.40;1.00;;;;;;5097137;28;20539;-75
2022/06/12 13:24:03;;;;;;;1.00;0.90;;;31.10;1.00;;;;;;5098436;28;20442;-76
2022/06/12 13:26:34;;;;;;;1.20;0.70;;;31.00;1.00;;;;;;5098880;28;20523;-75
2022/06/12 13:29:02;;;;;;;0.80;0.60;;;30.90;1.00;;;;;;5098648;28;20540;-75
2022/06/12 13:31:33;;;;;;;8.70;7.00;;;30.40;1.00;;;;;;5096208;28;20891;-75
2022/06/12 13:34:02;;;;;;;1.43;1.10;;;30.20;1.00;;;;;;5096549;28;20622;-75
2022/06/12 13:36:36;;;;;;;1.70;0.70;;;30.30;1.00;;;;;;5096670;28;20441;-75
2022/06/12 13:39:06;;;;;;;1.13;0.87;;;30.30;1.00;;;;;;5097592;28;20476;-75
2022/06/12 13:41:38;;;;;;;10.27;9.27;;;30.40;1.00;;;;;;5096324;28;20476;-75
2022/06/12 13:44:30;;;;;;;1.10;0.70;;;30.40;1.00;;;;;;5097652;28;20484;-75
2022/06/12 13:47:02;;;;;;;1.00;0.70;;;30.60;1.00;;;;;;5078235;28;20457;-75